Airfield :
LOGIN :

Register | Disclaimer

   EN    FR    IT 

 










Legend :    VFR   Marginal VFR   IFR   Intensive IFR   Very Intensive IFR
Visi :
Ceiling :
>= 8 km
>= 3000ft
5 to 8 km
1000 to 3000 ft
1500m to 5 km
500 to 1000 ft
800 to 1500m
200 to 500 ft
< 800m
< 200 ft
Symbols :   Thunderstorms  Fog  Heavy snow  Heavy precipitations  Wind > 20 kt
SIGMETs :     Misc.  Thunderstorms  Icing  Turbulence  Mountain Waves  Volcanic Ashes






- Airport Elevation : 265 ft


ETSH - Holzdorf AB

CURRENT METAR :
  • 250746Z 31004KT 5000 BR BKN014 03/02 Q1032 GRN GRN TEMPO YLO

EXPIRED METARs :
  • 250720Z 32004KT 4500 -DZ BR FEW010 OVC018 03/02 Q1032 GRN GRN TEMPO YLO
  • 250703Z 32004KT 4000 -DZ BR FEW008 OVC015 03/02 Q1032 GRN GRN TEMPO YLO
  • 250620Z 31004KT 4000 -DZ BR FEW006 OVC012 04/03 Q1032 GRN GRN TEMPO YLO
  • 250520Z 29003KT 4500 -DZ BR FEW005 SCT009 BKN013 04/03 Q1031 GRN GRN TEMPO YLO

TAF TAF ETSH
Valid from the 25 at 06:00 until the 25 at 15:00 UTC


250512Z 2506/2515 29005KT 6000 NSW SCT006 BKN013
TEMPO 2506/2509 30003KT 3000 -DZ BKN005 OVC012



MET'MAP, your aeronautical weather chart ! - Copyright ORBIFLY December 2007 - Disclaimer

ORBIFLY MET'MAP TEAM :

Programming & Development : Alexandra Zaïnal
Original concept : Baudouin d'Aumeries
Technical & hardware support : Manuel Goepfert
Assistance : Marc-Olivier Méhu

Contact : metmap@orbifly.com




SOURCES & CREDITS :

   NOAA